sensor_id;sensor_type;location;lat;lon;timestamp;P1;durP1;ratioP1;P2;durP2;ratioP2
20294;SDS011;10306;52.128;5.208;2022-07-04T00:00:24;1.97;;;1.87;;
20294;SDS011;10306;52.128;5.208;2022-07-04T00:02:50;2.27;;;1.80;;
20294;SDS011;10306;52.128;5.208;2022-07-04T00:05:17;2.67;;;2.00;;
20294;SDS011;10306;52.128;5.208;2022-07-04T00:07:44;3.20;;;1.67;;
20294;SDS011;10306;52.128;5.208;2022-07-04T00:10:11;2.20;;;1.90;;
20294;SDS011;10306;52.128;5.208;2022-07-04T00:12:38;3.30;;;1.80;;
20294;SDS011;10306;52.128;5.208;2022-07-04T00:15:05;2.30;;;1.70;;
20294;SDS011;10306;52.128;5.208;2022-07-04T00:17:31;1.70;;;1.60;;
20294;SDS011;10306;52.128;5.208;2022-07-04T00:19:57;5.20;;;2.10;;
20294;SDS011;10306;52.128;5.208;2022-07-04T00:22:23;4.63;;;2.27;;
20294;SDS011;10306;52.128;5.208;2022-07-04T00:24:49;2.70;;;1.90;;
20294;SDS011;10306;52.128;5.208;2022-07-04T00:27:15;2.50;;;2.10;;
20294;SDS011;10306;52.128;5.208;2022-07-04T00:29:41;2.07;;;1.70;;
20294;SDS011;10306;52.128;5.208;2022-07-04T00:32:07;2.10;;;1.97;;
20294;SDS011;10306;52.128;5.208;2022-07-04T00:34:33;2.33;;;1.80;;
20294;SDS011;10306;52.128;5.208;2022-07-04T00:36:59;3.53;;;2.13;;
20294;SDS011;10306;52.128;5.208;2022-07-04T00:39:25;2.30;;;1.77;;
20294;SDS011;10306;52.128;5.208;2022-07-04T00:41:51;2.27;;;2.10;;
20294;SDS011;10306;52.128;5.208;2022-07-04T00:44:17;2.23;;;2.00;;
20294;SDS011;10306;52.128;5.208;2022-07-04T00:46:44;1.83;;;1.73;;
20294;SDS011;10306;52.128;5.208;2022-07-04T00:49:10;2.43;;;1.50;;
20294;SDS011;10306;52.128;5.208;2022-07-04T00:51:37;3.73;;;1.70;;
20294;SDS011;10306;52.128;5.208;2022-07-04T00:54:04;3.23;;;1.70;;
20294;SDS011;10306;52.128;5.208;2022-07-04T00:56:30;2.37;;;2.17;;
20294;SDS011;10306;52.128;5.208;2022-07-04T00:58:57;5.17;;;1.70;;
20294;SDS011;10306;52.128;5.208;2022-07-04T01:01:24;2.10;;;1.70;;
20294;SDS011;10306;52.128;5.208;2022-07-04T01:03:50;2.00;;;1.90;;
20294;SDS011;10306;52.128;5.208;2022-07-04T01:06:17;2.87;;;1.90;;
20294;SDS011;10306;52.128;5.208;2022-07-04T01:08:44;2.23;;;2.03;;
20294;SDS011;10306;52.128;5.208;2022-07-04T01:11:10;1.97;;;1.87;;
20294;SDS011;10306;52.128;5.208;2022-07-04T01:13:36;3.20;;;2.10;;
20294;SDS011;10306;52.128;5.208;2022-07-04T01:16:03;2.10;;;2.00;;
20294;SDS011;10306;52.128;5.208;2022-07-04T01:18:29;3.83;;;2.00;;
20294;SDS011;10306;52.128;5.208;2022-07-04T01:20:55;2.13;;;2.03;;
20294;SDS011;10306;52.128;5.208;2022-07-04T01:23:21;2.20;;;2.03;;
20294;SDS011;10306;52.128;5.208;2022-07-04T01:25:47;2.03;;;1.90;;
20294;SDS011;10306;52.128;5.208;2022-07-04T01:28:20;4.00;;;2.10;;
20294;SDS011;10306;52.128;5.208;2022-07-04T01:30:46;2.70;;;2.60;;
20294;SDS011;10306;52.128;5.208;2022-07-04T01:33:12;2.53;;;2.33;;
20294;SDS011;10306;52.128;5.208;2022-07-04T01:35:38;5.03;;;2.30;;
20294;SDS011;10306;52.128;5.208;2022-07-04T01:38:04;2.50;;;2.30;;
20294;SDS011;10306;52.128;5.208;2022-07-04T01:40:30;2.40;;;2.30;;
20294;SDS011;10306;52.128;5.208;2022-07-04T01:42:57;2.60;;;2.40;;
20294;SDS011;10306;52.128;5.208;2022-07-04T01:45:23;3.07;;;2.77;;
20294;SDS011;10306;52.128;5.208;2022-07-04T01:47:49;4.90;;;2.43;;
20294;SDS011;10306;52.128;5.208;2022-07-04T01:50:15;4.33;;;2.40;;
20294;SDS011;10306;52.128;5.208;2022-07-04T01:52:41;3.03;;;2.70;;
20294;SDS011;10306;52.128;5.208;2022-07-04T01:55:08;2.77;;;2.60;;
20294;SDS011;10306;52.128;5.208;2022-07-04T01:57:34;3.07;;;2.50;;
20294;SDS011;10306;52.128;5.208;2022-07-04T02:00:00;3.07;;;2.80;;
20294;SDS011;10306;52.128;5.208;2022-07-04T02:02:45;4.20;;;2.57;;
20294;SDS011;10306;52.128;5.208;2022-07-04T02:05:11;2.50;;;2.40;;
20294;SDS011;10306;52.128;5.208;2022-07-04T02:07:37;3.17;;;2.87;;
20294;SDS011;10306;52.128;5.208;2022-07-04T02:10:03;2.87;;;2.67;;
20294;SDS011;10306;52.128;5.208;2022-07-04T02:12:29;3.27;;;2.93;;
20294;SDS011;10306;52.128;5.208;2022-07-04T02:15:14;5.43;;;3.00;;
20294;SDS011;10306;52.128;5.208;2022-07-04T02:17:40;5.50;;;3.10;;
20294;SDS011;10306;52.128;5.208;2022-07-04T02:20:06;4.70;;;2.50;;
20294;SDS011;10306;52.128;5.208;2022-07-04T02:22:32;3.10;;;2.80;;
20294;SDS011;10306;52.128;5.208;2022-07-04T02:24:58;3.03;;;2.83;;
20294;SDS011;10306;52.128;5.208;2022-07-04T02:27:24;2.90;;;2.70;;
20294;SDS011;10306;52.128;5.208;2022-07-04T02:29:50;2.73;;;2.53;;
20294;SDS011;10306;52.128;5.208;2022-07-04T02:32:16;2.87;;;2.70;;
20294;SDS011;10306;52.128;5.208;2022-07-04T02:34:42;4.80;;;2.87;;
20294;SDS011;10306;52.128;5.208;2022-07-04T02:37:08;2.87;;;2.67;;
20294;SDS011;10306;52.128;5.208;2022-07-04T02:39:34;4.47;;;2.77;;
20294;SDS011;10306;52.128;5.208;2022-07-04T02:42:00;3.20;;;2.97;;
20294;SDS011;10306;52.128;5.208;2022-07-04T02:44:26;5.00;;;2.90;;
20294;SDS011;10306;52.128;5.208;2022-07-04T02:46:52;3.07;;;2.87;;
20294;SDS011;10306;52.128;5.208;2022-07-04T02:49:19;3.83;;;2.70;;
20294;SDS011;10306;52.128;5.208;2022-07-04T02:51:45;3.00;;;2.80;;
20294;SDS011;10306;52.128;5.208;2022-07-04T02:54:11;3.33;;;3.13;;
20294;SDS011;10306;52.128;5.208;2022-07-04T02:56:37;4.20;;;3.10;;
20294;SDS011;10306;52.128;5.208;2022-07-04T02:59:03;3.80;;;3.50;;
20294;SDS011;10306;52.128;5.208;2022-07-04T03:01:29;3.23;;;3.00;;
20294;SDS011;10306;52.128;5.208;2022-07-04T03:03:55;4.70;;;3.23;;
20294;SDS011;10306;52.128;5.208;2022-07-04T03:06:21;4.10;;;3.00;;
20294;SDS011;10306;52.128;5.208;2022-07-04T03:08:47;3.10;;;2.90;;
20294;SDS011;10306;52.128;5.208;2022-07-04T03:11:13;5.17;;;3.40;;
20294;SDS011;10306;52.128;5.208;2022-07-04T03:13:39;3.47;;;3.20;;
20294;SDS011;10306;52.128;5.208;2022-07-04T03:16:05;3.63;;;3.30;;
20294;SDS011;10306;52.128;5.208;2022-07-04T03:18:31;3.40;;;3.10;;
20294;SDS011;10306;52.128;5.208;2022-07-04T03:20:57;4.47;;;4.07;;
20294;SDS011;10306;52.128;5.208;2022-07-04T03:23:23;3.57;;;3.33;;
20294;SDS011;10306;52.128;5.208;2022-07-04T03:25:49;4.70;;;3.73;;
20294;SDS011;10306;52.128;5.208;2022-07-04T03:28:15;4.43;;;3.53;;
20294;SDS011;10306;52.128;5.208;2022-07-04T03:30:41;5.93;;;3.70;;
20294;SDS011;10306;52.128;5.208;2022-07-04T03:33:07;3.70;;;3.40;;
20294;SDS011;10306;52.128;5.208;2022-07-04T03:35:33;4.47;;;3.60;;
20294;SDS011;10306;52.128;5.208;2022-07-04T03:37:59;4.50;;;4.23;;
20294;SDS011;10306;52.128;5.208;2022-07-04T03:40:25;4.23;;;3.93;;
20294;SDS011;10306;52.128;5.208;2022-07-04T03:42:55;6.17;;;3.70;;
20294;SDS011;10306;52.128;5.208;2022-07-04T03:45:21;4.33;;;4.03;;
20294;SDS011;10306;52.128;5.208;2022-07-04T03:47:47;3.90;;;3.60;;
20294;SDS011;10306;52.128;5.208;2022-07-04T03:50:13;4.33;;;3.90;;
20294;SDS011;10306;52.128;5.208;2022-07-04T03:52:39;3.90;;;3.60;;
20294;SDS011;10306;52.128;5.208;2022-07-04T03:55:05;4.07;;;3.77;;
20294;SDS011;10306;52.128;5.208;2022-07-04T03:57:32;6.23;;;4.10;;
20294;SDS011;10306;52.128;5.208;2022-07-04T03:59:58;4.17;;;3.97;;
20294;SDS011;10306;52.128;5.208;2022-07-04T04:02:24;4.30;;;3.90;;
20294;SDS011;10306;52.128;5.208;2022-07-04T04:04:50;3.90;;;3.57;;
20294;SDS011;10306;52.128;5.208;2022-07-04T04:07:34;4.40;;;4.10;;
20294;SDS011;10306;52.128;5.208;2022-07-04T04:10:00;4.77;;;4.40;;
20294;SDS011;10306;52.128;5.208;2022-07-04T04:12:26;5.10;;;4.67;;
20294;SDS011;10306;52.128;5.208;2022-07-04T04:14:52;5.17;;;4.77;;
20294;SDS011;10306;52.128;5.208;2022-07-04T04:17:18;5.77;;;5.27;;
20294;SDS011;10306;52.128;5.208;2022-07-04T04:19:44;5.10;;;4.70;;
20294;SDS011;10306;52.128;5.208;2022-07-04T04:22:10;5.33;;;4.50;;
20294;SDS011;10306;52.128;5.208;2022-07-04T04:24:36;5.33;;;4.90;;
20294;SDS011;10306;52.128;5.208;2022-07-04T04:27:02;6.60;;;4.90;;
20294;SDS011;10306;52.128;5.208;2022-07-04T04:29:28;5.07;;;4.50;;
20294;SDS011;10306;52.128;5.208;2022-07-04T04:31:54;4.17;;;3.87;;
20294;SDS011;10306;52.128;5.208;2022-07-04T04:34:20;4.93;;;4.53;;
20294;SDS011;10306;52.128;5.208;2022-07-04T04:36:46;4.73;;;4.30;;
20294;SDS011;10306;52.128;5.208;2022-07-04T04:39:12;4.80;;;4.47;;
20294;SDS011;10306;52.128;5.208;2022-07-04T04:41:38;5.20;;;4.30;;
20294;SDS011;10306;52.128;5.208;2022-07-04T04:44:04;6.57;;;5.43;;
20294;SDS011;10306;52.128;5.208;2022-07-04T04:46:30;6.40;;;5.90;;
20294;SDS011;10306;52.128;5.208;2022-07-04T04:48:56;5.33;;;4.63;;
20294;SDS011;10306;52.128;5.208;2022-07-04T04:51:22;6.67;;;5.30;;
20294;SDS011;10306;52.128;5.208;2022-07-04T04:53:48;6.07;;;5.00;;
20294;SDS011;10306;52.128;5.208;2022-07-04T04:56:14;6.00;;;5.50;;
20294;SDS011;10306;52.128;5.208;2022-07-04T04:58:40;5.30;;;4.83;;
20294;SDS011;10306;52.128;5.208;2022-07-04T05:01:06;6.57;;;4.90;;
20294;SDS011;10306;52.128;5.208;2022-07-04T05:03:32;5.97;;;5.37;;
20294;SDS011;10306;52.128;5.208;2022-07-04T05:05:58;5.57;;;5.00;;
20294;SDS011;10306;52.128;5.208;2022-07-04T05:08:24;6.40;;;5.80;;
20294;SDS011;10306;52.128;5.208;2022-07-04T05:10:51;9.67;;;7.00;;
20294;SDS011;10306;52.128;5.208;2022-07-04T05:13:17;10.57;;;8.83;;
20294;SDS011;10306;52.128;5.208;2022-07-04T05:15:43;13.37;;;8.70;;
20294;SDS011;10306;52.128;5.208;2022-07-04T05:18:09;12.67;;;8.50;;
20294;SDS011;10306;52.128;5.208;2022-07-04T05:20:35;12.87;;;9.17;;
20294;SDS011;10306;52.128;5.208;2022-07-04T05:23:01;11.67;;;9.03;;
20294;SDS011;10306;52.128;5.208;2022-07-04T05:25:27;13.93;;;10.03;;
20294;SDS011;10306;52.128;5.208;2022-07-04T05:27:53;11.63;;;9.67;;
20294;SDS011;10306;52.128;5.208;2022-07-04T05:30:19;14.57;;;8.33;;
20294;SDS011;10306;52.128;5.208;2022-07-04T05:32:45;12.80;;;8.87;;
20294;SDS011;10306;52.128;5.208;2022-07-04T05:35:11;8.93;;;8.13;;
20294;SDS011;10306;52.128;5.208;2022-07-04T05:37:37;10.30;;;8.67;;
20294;SDS011;10306;52.128;5.208;2022-07-04T05:40:04;9.03;;;8.20;;
20294;SDS011;10306;52.128;5.208;2022-07-04T05:42:30;12.20;;;7.87;;
20294;SDS011;10306;52.128;5.208;2022-07-04T05:44:56;8.57;;;6.87;;
20294;SDS011;10306;52.128;5.208;2022-07-04T05:47:22;8.77;;;7.80;;
20294;SDS011;10306;52.128;5.208;2022-07-04T05:49:51;8.60;;;6.73;;
20294;SDS011;10306;52.128;5.208;2022-07-04T05:52:17;8.70;;;7.47;;
20294;SDS011;10306;52.128;5.208;2022-07-04T05:54:43;11.33;;;7.03;;
20294;SDS011;10306;52.128;5.208;2022-07-04T05:57:09;9.83;;;6.17;;
20294;SDS011;10306;52.128;5.208;2022-07-04T05:59:35;8.07;;;5.87;;
20294;SDS011;10306;52.128;5.208;2022-07-04T06:02:02;8.93;;;6.90;;
20294;SDS011;10306;52.128;5.208;2022-07-04T06:04:28;12.57;;;6.70;;
20294;SDS011;10306;52.128;5.208;2022-07-04T06:06:54;9.23;;;5.67;;
20294;SDS011;10306;52.128;5.208;2022-07-04T06:09:20;8.67;;;5.60;;
20294;SDS011;10306;52.128;5.208;2022-07-04T06:11:46;16.57;;;5.53;;
20294;SDS011;10306;52.128;5.208;2022-07-04T06:14:12;10.60;;;5.03;;
20294;SDS011;10306;52.128;5.208;2022-07-04T06:16:39;11.43;;;4.70;;
20294;SDS011;10306;52.128;5.208;2022-07-04T06:19:05;12.47;;;4.87;;
20294;SDS011;10306;52.128;5.208;2022-07-04T06:21:31;9.50;;;4.67;;
20294;SDS011;10306;52.128;5.208;2022-07-04T06:23:57;6.87;;;4.80;;
20294;SDS011;10306;52.128;5.208;2022-07-04T06:26:23;7.93;;;4.57;;
20294;SDS011;10306;52.128;5.208;2022-07-04T06:28:49;7.23;;;4.63;;
20294;SDS011;10306;52.128;5.208;2022-07-04T06:31:15;15.20;;;6.13;;
20294;SDS011;10306;52.128;5.208;2022-07-04T06:33:41;11.53;;;4.83;;
20294;SDS011;10306;52.128;5.208;2022-07-04T06:36:26;11.63;;;4.90;;
20294;SDS011;10306;52.128;5.208;2022-07-04T06:38:52;10.40;;;5.03;;
20294;SDS011;10306;52.128;5.208;2022-07-04T06:41:18;16.50;;;5.77;;
20294;SDS011;10306;52.128;5.208;2022-07-04T06:43:44;10.77;;;5.90;;
20294;SDS011;10306;52.128;5.208;2022-07-04T06:46:10;13.37;;;5.63;;
20294;SDS011;10306;52.128;5.208;2022-07-04T06:48:36;10.67;;;5.00;;
20294;SDS011;10306;52.128;5.208;2022-07-04T06:51:02;10.00;;;5.23;;
20294;SDS011;10306;52.128;5.208;2022-07-04T06:53:28;7.30;;;4.93;;
20294;SDS011;10306;52.128;5.208;2022-07-04T06:55:54;11.17;;;5.17;;
20294;SDS011;10306;52.128;5.208;2022-07-04T06:58:19;10.60;;;4.83;;
20294;SDS011;10306;52.128;5.208;2022-07-04T07:00:45;9.63;;;5.30;;
20294;SDS011;10306;52.128;5.208;2022-07-04T07:03:11;7.80;;;4.40;;
20294;SDS011;10306;52.128;5.208;2022-07-04T07:05:37;10.13;;;4.60;;
20294;SDS011;10306;52.128;5.208;2022-07-04T07:08:04;8.90;;;4.60;;
20294;SDS011;10306;52.128;5.208;2022-07-04T07:10:30;11.33;;;4.53;;
20294;SDS011;10306;52.128;5.208;2022-07-04T07:13:00;9.57;;;4.13;;
20294;SDS011;10306;52.128;5.208;2022-07-04T07:15:26;9.43;;;5.10;;
20294;SDS011;10306;52.128;5.208;2022-07-04T07:17:52;6.20;;;4.23;;
20294;SDS011;10306;52.128;5.208;2022-07-04T07:20:18;7.63;;;3.77;;
20294;SDS011;10306;52.128;5.208;2022-07-04T07:22:44;5.87;;;3.30;;
20294;SDS011;10306;52.128;5.208;2022-07-04T07:25:10;7.97;;;3.83;;
20294;SDS011;10306;52.128;5.208;2022-07-04T07:27:37;9.23;;;3.80;;
20294;SDS011;10306;52.128;5.208;2022-07-04T07:30:04;5.17;;;2.97;;
20294;SDS011;10306;52.128;5.208;2022-07-04T07:32:30;5.60;;;3.13;;
20294;SDS011;10306;52.128;5.208;2022-07-04T07:34:56;6.03;;;2.70;;
20294;SDS011;10306;52.128;5.208;2022-07-04T07:37:22;5.87;;;3.03;;
20294;SDS011;10306;52.128;5.208;2022-07-04T07:39:48;4.47;;;2.90;;
20294;SDS011;10306;52.128;5.208;2022-07-04T07:42:15;9.57;;;2.90;;
20294;SDS011;10306;52.128;5.208;2022-07-04T07:44:41;5.27;;;2.60;;
20294;SDS011;10306;52.128;5.208;2022-07-04T07:47:07;4.00;;;2.20;;
20294;SDS011;10306;52.128;5.208;2022-07-04T07:49:33;3.83;;;2.20;;
20294;SDS011;10306;52.128;5.208;2022-07-04T07:51:59;4.13;;;2.10;;
20294;SDS011;10306;52.128;5.208;2022-07-04T07:54:24;4.75;;;2.30;;
20294;SDS011;10306;52.128;5.208;2022-07-04T07:56:50;6.35;;;2.33;;
20294;SDS011;10306;52.128;5.208;2022-07-04T07:59:16;2.83;;;2.45;;
20294;SDS011;10306;52.128;5.208;2022-07-04T08:01:43;3.73;;;2.00;;
20294;SDS011;10306;52.128;5.208;2022-07-04T08:04:09;2.65;;;2.22;;
20294;SDS011;10306;52.128;5.208;2022-07-04T08:06:53;2.57;;;2.30;;
20294;SDS011;10306;52.128;5.208;2022-07-04T08:09:19;3.10;;;2.00;;
20294;SDS011;10306;52.128;5.208;2022-07-04T08:11:45;3.22;;;2.03;;
20294;SDS011;10306;52.128;5.208;2022-07-04T08:14:11;3.63;;;2.10;;
20294;SDS011;10306;52.128;5.208;2022-07-04T08:16:38;2.30;;;2.10;;
20294;SDS011;10306;52.128;5.208;2022-07-04T08:19:05;3.60;;;1.90;;
20294;SDS011;10306;52.128;5.208;2022-07-04T08:21:31;2.38;;;2.17;;
20294;SDS011;10306;52.128;5.208;2022-07-04T08:23:57;4.13;;;2.07;;
20294;SDS011;10306;52.128;5.208;2022-07-04T08:26:23;2.30;;;2.10;;
20294;SDS011;10306;52.128;5.208;2022-07-04T08:28:50;4.22;;;2.03;;
20294;SDS011;10306;52.128;5.208;2022-07-04T08:31:17;3.00;;;1.48;;
20294;SDS011;10306;52.128;5.208;2022-07-04T08:33:43;2.95;;;1.70;;
20294;SDS011;10306;52.128;5.208;2022-07-04T08:36:09;2.10;;;2.00;;
20294;SDS011;10306;52.128;5.208;2022-07-04T08:38:35;2.90;;;1.80;;
20294;SDS011;10306;52.128;5.208;2022-07-04T08:41:02;1.42;;;1.33;;
20294;SDS011;10306;52.128;5.208;2022-07-04T08:43:28;1.73;;;1.63;;
20294;SDS011;10306;52.128;5.208;2022-07-04T08:45:58;3.30;;;2.10;;
20294;SDS011;10306;52.128;5.208;2022-07-04T08:48:25;2.03;;;1.23;;
20294;SDS011;10306;52.128;5.208;2022-07-04T08:50:54;1.70;;;1.60;;
20294;SDS011;10306;52.128;5.208;2022-07-04T08:53:21;1.90;;;1.75;;
20294;SDS011;10306;52.128;5.208;2022-07-04T08:55:49;1.55;;;1.30;;
20294;SDS011;10306;52.128;5.208;2022-07-04T08:58:36;1.38;;;1.30;;
20294;SDS011;10306;52.128;5.208;2022-07-04T09:01:04;1.58;;;1.48;;
20294;SDS011;10306;52.128;5.208;2022-07-04T09:03:31;2.75;;;1.70;;
20294;SDS011;10306;52.128;5.208;2022-07-04T09:05:57;2.05;;;1.10;;
20294;SDS011;10306;52.128;5.208;2022-07-04T09:08:23;1.52;;;1.42;;
20294;SDS011;10306;52.128;5.208;2022-07-04T09:10:50;2.78;;;1.30;;
20294;SDS011;10306;52.128;5.208;2022-07-04T09:13:16;1.98;;;1.45;;
20294;SDS011;10306;52.128;5.208;2022-07-04T09:15:43;2.47;;;1.23;;
20294;SDS011;10306;52.128;5.208;2022-07-04T09:18:26;1.80;;;1.30;;
20294;SDS011;10306;52.128;5.208;2022-07-04T09:20:53;1.63;;;1.25;;
20294;SDS011;10306;52.128;5.208;2022-07-04T09:23:23;1.95;;;1.42;;
20294;SDS011;10306;52.128;5.208;2022-07-04T09:26:05;1.30;;;1.30;;
20294;SDS011;10306;52.128;5.208;2022-07-04T09:28:31;1.40;;;1.30;;
20294;SDS011;10306;52.128;5.208;2022-07-04T09:30:57;1.20;;;1.20;;
20294;SDS011;10306;52.128;5.208;2022-07-04T09:33:42;1.20;;;1.20;;
20294;SDS011;10306;52.128;5.208;2022-07-04T09:36:13;1.65;;;1.40;;
20294;SDS011;10306;52.128;5.208;2022-07-04T09:38:39;2.03;;;1.52;;
20294;SDS011;10306;52.128;5.208;2022-07-04T09:41:05;2.20;;;1.50;;
20294;SDS011;10306;52.128;5.208;2022-07-04T09:44:04;2.05;;;1.63;;
20294;SDS011;10306;52.128;5.208;2022-07-04T09:46:30;1.50;;;1.40;;
20294;SDS011;10306;52.128;5.208;2022-07-04T09:48:56;2.00;;;1.58;;
20294;SDS011;10306;52.128;5.208;2022-07-04T09:56:52;1.50;;;1.40;;
20294;SDS011;10306;52.128;5.208;2022-07-04T09:59:18;2.22;;;1.48;;
20294;SDS011;10306;52.128;5.208;2022-07-04T10:01:44;2.35;;;1.50;;
20294;SDS011;10306;52.128;5.208;2022-07-04T10:04:11;1.65;;;1.55;;
20294;SDS011;10306;52.128;5.208;2022-07-04T10:06:39;1.50;;;1.40;;
20294;SDS011;10306;52.128;5.208;2022-07-04T10:09:09;1.70;;;1.60;;
20294;SDS011;10306;52.128;5.208;2022-07-04T10:11:35;2.53;;;1.90;;
20294;SDS011;10306;52.128;5.208;2022-07-04T10:14:03;1.40;;;1.40;;
20294;SDS011;10306;52.128;5.208;2022-07-04T10:16:30;1.83;;;1.65;;
20294;SDS011;10306;52.128;5.208;2022-07-04T10:18:56;1.77;;;1.67;;
20294;SDS011;10306;52.128;5.208;2022-07-04T10:21:23;1.48;;;1.40;;
20294;SDS011;10306;52.128;5.208;2022-07-04T10:23:49;1.40;;;1.30;;
20294;SDS011;10306;52.128;5.208;2022-07-04T10:26:19;1.05;;;1.05;;
20294;SDS011;10306;52.128;5.208;2022-07-04T10:28:46;1.48;;;1.23;;
20294;SDS011;10306;52.128;5.208;2022-07-04T10:31:16;2.13;;;1.05;;
20294;SDS011;10306;52.128;5.208;2022-07-04T10:33:42;0.90;;;0.90;;
20294;SDS011;10306;52.128;5.208;2022-07-04T10:36:18;0.95;;;0.95;;
20294;SDS011;10306;52.128;5.208;2022-07-04T10:38:52;2.40;;;1.30;;
20294;SDS011;10306;52.128;5.208;2022-07-04T10:41:19;1.30;;;1.10;;
20294;SDS011;10306;52.128;5.208;2022-07-04T10:43:57;1.40;;;1.08;;
20294;SDS011;10306;52.128;5.208;2022-07-04T10:46:29;1.00;;;1.00;;
20294;SDS011;10306;52.128;5.208;2022-07-04T10:48:57;1.10;;;1.00;;
20294;SDS011;10306;52.128;5.208;2022-07-04T10:53:59;2.67;;;1.30;;
20294;SDS011;10306;52.128;5.208;2022-07-04T10:58:51;1.02;;;1.00;;
20294;SDS011;10306;52.128;5.208;2022-07-04T11:01:17;1.30;;;1.13;;
20294;SDS011;10306;52.128;5.208;2022-07-04T11:03:46;1.20;;;1.20;;
20294;SDS011;10306;52.128;5.208;2022-07-04T11:11:57;1.27;;;0.90;;
20294;SDS011;10306;52.128;5.208;2022-07-04T11:14:29;1.38;;;1.27;;
20294;SDS011;10306;52.128;5.208;2022-07-04T11:16:56;1.30;;;1.20;;
20294;SDS011;10306;52.128;5.208;2022-07-04T11:19:22;2.67;;;1.30;;
20294;SDS011;10306;52.128;5.208;2022-07-04T11:21:48;1.45;;;1.30;;
20294;SDS011;10306;52.128;5.208;2022-07-04T11:24:14;1.48;;;1.20;;
20294;SDS011;10306;52.128;5.208;2022-07-04T11:26:40;1.17;;;1.13;;
20294;SDS011;10306;52.128;5.208;2022-07-04T11:29:06;2.38;;;1.17;;
20294;SDS011;10306;52.128;5.208;2022-07-04T11:31:38;1.73;;;1.20;;
20294;SDS011;10306;52.128;5.208;2022-07-04T11:34:05;1.40;;;1.30;;
20294;SDS011;10306;52.128;5.208;2022-07-04T11:36:31;1.17;;;1.17;;
20294;SDS011;10306;52.128;5.208;2022-07-04T11:41:25;0.98;;;0.98;;
20294;SDS011;10306;52.128;5.208;2022-07-04T11:44:11;1.38;;;1.20;;
20294;SDS011;10306;52.128;5.208;2022-07-04T11:47:03;1.10;;;1.10;;
20294;SDS011;10306;52.128;5.208;2022-07-04T11:49:29;1.58;;;1.30;;
20294;SDS011;10306;52.128;5.208;2022-07-04T11:51:55;1.60;;;1.50;;
20294;SDS011;10306;52.128;5.208;2022-07-04T11:54:21;1.20;;;1.20;;
20294;SDS011;10306;52.128;5.208;2022-07-04T11:56:48;1.30;;;1.20;;
20294;SDS011;10306;52.128;5.208;2022-07-04T11:59:15;1.42;;;1.17;;
20294;SDS011;10306;52.128;5.208;2022-07-04T12:01:42;1.55;;;1.33;;
20294;SDS011;10306;52.128;5.208;2022-07-04T12:04:26;2.00;;;1.42;;
20294;SDS011;10306;52.128;5.208;2022-07-04T12:06:52;1.77;;;1.10;;
20294;SDS011;10306;52.128;5.208;2022-07-04T12:09:18;1.40;;;1.20;;
20294;SDS011;10306;52.128;5.208;2022-07-04T12:11:57;1.20;;;1.10;;
20294;SDS011;10306;52.128;5.208;2022-07-04T12:14:24;1.45;;;1.25;;
20294;SDS011;10306;52.128;5.208;2022-07-04T12:17:07;1.20;;;1.10;;
20294;SDS011;10306;52.128;5.208;2022-07-04T12:19:33;1.08;;;1.08;;
20294;SDS011;10306;52.128;5.208;2022-07-04T12:21:59;1.08;;;1.08;;
20294;SDS011;10306;52.128;5.208;2022-07-04T12:24:36;3.53;;;1.67;;
20294;SDS011;10306;52.128;5.208;2022-07-04T12:27:04;1.95;;;1.30;;
20294;SDS011;10306;52.128;5.208;2022-07-04T12:29:30;1.85;;;0.95;;
20294;SDS011;10306;52.128;5.208;2022-07-04T12:31:56;1.67;;;1.27;;
20294;SDS011;10306;52.128;5.208;2022-07-04T12:34:22;1.35;;;1.25;;
20294;SDS011;10306;52.128;5.208;2022-07-04T12:36:52;2.03;;;1.10;;
20294;SDS011;10306;52.128;5.208;2022-07-04T12:42:06;1.98;;;1.27;;
20294;SDS011;10306;52.128;5.208;2022-07-04T12:44:33;1.75;;;1.40;;
20294;SDS011;10306;52.128;5.208;2022-07-04T12:46:59;1.13;;;1.13;;
20294;SDS011;10306;52.128;5.208;2022-07-04T12:49:25;1.77;;;1.23;;
20294;SDS011;10306;52.128;5.208;2022-07-04T12:51:52;1.50;;;1.40;;
20294;SDS011;10306;52.128;5.208;2022-07-04T12:54:28;1.20;;;1.20;;
20294;SDS011;10306;52.128;5.208;2022-07-04T12:57:01;1.48;;;1.17;;
20294;SDS011;10306;52.128;5.208;2022-07-04T12:59:28;2.60;;;1.25;;
20294;SDS011;10306;52.128;5.208;2022-07-04T13:01:54;1.35;;;1.02;;
20294;SDS011;10306;52.128;5.208;2022-07-04T13:04:20;1.45;;;1.10;;
20294;SDS011;10306;52.128;5.208;2022-07-04T13:06:46;1.13;;;1.00;;
20294;SDS011;10306;52.128;5.208;2022-07-04T13:09:12;1.30;;;1.00;;
20294;SDS011;10306;52.128;5.208;2022-07-04T13:11:38;1.83;;;1.05;;
20294;SDS011;10306;52.128;5.208;2022-07-04T13:14:23;1.65;;;1.02;;
20294;SDS011;10306;52.128;5.208;2022-07-04T13:16:49;0.85;;;0.85;;
20294;SDS011;10306;52.128;5.208;2022-07-04T13:19:15;0.90;;;0.90;;
20294;SDS011;10306;52.128;5.208;2022-07-04T13:21:42;1.08;;;1.05;;
20294;SDS011;10306;52.128;5.208;2022-07-04T13:24:08;1.02;;;1.00;;
20294;SDS011;10306;52.128;5.208;2022-07-04T13:26:34;1.08;;;0.98;;
20294;SDS011;10306;52.128;5.208;2022-07-04T13:29:01;1.08;;;1.08;;
20294;SDS011;10306;52.128;5.208;2022-07-04T13:31:27;2.80;;;1.00;;
20294;SDS011;10306;52.128;5.208;2022-07-04T13:33:53;1.50;;;1.10;;
20294;SDS011;10306;52.128;5.208;2022-07-04T13:36:19;1.23;;;0.93;;
20294;SDS011;10306;52.128;5.208;2022-07-04T13:38:46;1.30;;;1.05;;
20294;SDS011;10306;52.128;5.208;2022-07-04T13:41:12;2.00;;;0.90;;
20294;SDS011;10306;52.128;5.208;2022-07-04T13:43:38;1.42;;;1.10;;
20294;SDS011;10306;52.128;5.208;2022-07-04T13:46:04;1.35;;;1.15;;
20294;SDS011;10306;52.128;5.208;2022-07-04T13:48:30;0.80;;;0.80;;
20294;SDS011;10306;52.128;5.208;2022-07-04T13:50:56;1.92;;;1.00;;
20294;SDS011;10306;52.128;5.208;2022-07-04T13:53:22;1.98;;;1.40;;
20294;SDS011;10306;52.128;5.208;2022-07-04T13:55:48;1.95;;;1.02;;
20294;SDS011;10306;52.128;5.208;2022-07-04T13:58:14;1.85;;;1.00;;
20294;SDS011;10306;52.128;5.208;2022-07-04T14:00:40;1.52;;;1.17;;
20294;SDS011;10306;52.128;5.208;2022-07-04T14:03:10;1.25;;;1.00;;
20294;SDS011;10306;52.128;5.208;2022-07-04T14:05:36;0.80;;;0.80;;
20294;SDS011;10306;52.128;5.208;2022-07-04T14:08:02;2.17;;;1.10;;
20294;SDS011;10306;52.128;5.208;2022-07-04T14:10:28;1.05;;;1.00;;
20294;SDS011;10306;52.128;5.208;2022-07-04T14:12:54;1.33;;;0.93;;
20294;SDS011;10306;52.128;5.208;2022-07-04T14:15:20;2.40;;;1.13;;
20294;SDS011;10306;52.128;5.208;2022-07-04T14:17:46;1.10;;;0.98;;
20294;SDS011;10306;52.128;5.208;2022-07-04T14:20:12;2.45;;;1.33;;
20294;SDS011;10306;52.128;5.208;2022-07-04T14:22:38;1.20;;;1.10;;
20294;SDS011;10306;52.128;5.208;2022-07-04T14:25:05;1.20;;;1.10;;
20294;SDS011;10306;52.128;5.208;2022-07-04T14:27:31;1.33;;;1.23;;
20294;SDS011;10306;52.128;5.208;2022-07-04T14:29:57;1.00;;;1.00;;
20294;SDS011;10306;52.128;5.208;2022-07-04T14:32:23;2.65;;;1.40;;
20294;SDS011;10306;52.128;5.208;2022-07-04T14:34:50;1.30;;;1.20;;
20294;SDS011;10306;52.128;5.208;2022-07-04T14:37:16;1.17;;;1.17;;
20294;SDS011;10306;52.128;5.208;2022-07-04T14:39:42;1.20;;;1.20;;
20294;SDS011;10306;52.128;5.208;2022-07-04T14:42:08;1.30;;;1.23;;
20294;SDS011;10306;52.128;5.208;2022-07-04T14:44:34;1.50;;;1.40;;
20294;SDS011;10306;52.128;5.208;2022-07-04T14:47:03;3.53;;;1.30;;
20294;SDS011;10306;52.128;5.208;2022-07-04T14:49:29;1.23;;;1.23;;
20294;SDS011;10306;52.128;5.208;2022-07-04T14:51:54;1.30;;;1.20;;
20294;SDS011;10306;52.128;5.208;2022-07-04T14:54:22;2.53;;;1.27;;
20294;SDS011;10306;52.128;5.208;2022-07-04T14:56:48;1.40;;;1.23;;
20294;SDS011;10306;52.128;5.208;2022-07-04T14:59:14;1.30;;;1.20;;
20294;SDS011;10306;52.128;5.208;2022-07-04T15:01:40;1.63;;;1.30;;
20294;SDS011;10306;52.128;5.208;2022-07-04T15:04:06;1.40;;;1.30;;
20294;SDS011;10306;52.128;5.208;2022-07-04T15:06:32;4.53;;;1.30;;